Time;durP1;ratioP1;P1;durP2;ratioP2;P2;SDS_P1;SDS_P2;PMS_P1;PMS_P2;Temp;Humidity;BMP_temperature;BMP_pressure;BME280_temperature;BME280_humidity;BME280_pressure;Samples;Min_cycle;Max_cycle;Signal;HPM_P1;HPM_P2
2023/04/17 00:00:28;;;;;;;9.93;5.90;;;;;;;;;;4941361;29;20032;-80
2023/04/17 00:02:54;;;;;;;8.25;5.95;;;;;;;;;;4947520;29;20020;-79
2023/04/17 00:05:21;;;;;;;9.75;6.68;;;;;;;;;;4959995;29;20042;-80
2023/04/17 00:07:48;;;;;;;12.75;8.20;;;;;;;;;;4942174;29;20024;-80
2023/04/17 00:10:14;;;;;;;14.20;8.60;;;;;;;;;;4942133;29;20042;-80
2023/04/17 00:12:40;;;;;;;11.55;7.38;;;;;;;;;;4942193;29;20342;-79
2023/04/17 00:15:07;;;;;;;8.77;6.30;;;;;;;;;;4942500;29;20020;-80
2023/04/17 00:17:33;;;;;;;17.38;10.93;;;;;;;;;;4942101;29;20031;-79
2023/04/17 00:19:59;;;;;;;85.57;30.05;;;;;;;;;;4940682;29;20114;-79
2023/04/17 00:22:25;;;;;;;71.30;26.08;;;;;;;;;;4942692;29;20046;-79
2023/04/17 00:24:51;;;;;;;57.03;22.25;;;;;;;;;;4941280;29;20058;-79
2023/04/17 00:27:17;;;;;;;87.53;29.60;;;;;;;;;;4940744;29;20068;-80
2023/04/17 00:29:43;;;;;;;67.82;26.20;;;;;;;;;;4941725;29;20036;-79
2023/04/17 00:32:09;;;;;;;67.15;24.75;;;;;;;;;;4941807;29;20363;-80
2023/04/17 00:34:36;;;;;;;59.80;21.77;;;;;;;;;;4941917;29;20028;-80
2023/04/17 00:37:02;;;;;;;79.25;29.48;;;;;;;;;;4940902;29;20034;-80
2023/04/17 00:39:28;;;;;;;73.25;25.65;;;;;;;;;;4940592;29;20040;-80
2023/04/17 00:41:56;;;;;;;67.10;24.35;;;;;;;;;;4941262;29;20063;-80
2023/04/17 00:44:22;;;;;;;57.00;21.00;;;;;;;;;;4940354;29;20039;-80
2023/04/17 00:46:48;;;;;;;38.67;15.27;;;;;;;;;;4941431;29;20034;-80
2023/04/17 00:49:14;;;;;;;22.00;11.90;;;;;;;;;;4940377;29;20036;-80
2023/04/17 00:51:40;;;;;;;19.13;11.77;;;;;;;;;;4940121;29;20035;-80
2023/04/17 00:54:06;;;;;;;19.13;11.88;;;;;;;;;;4940450;29;20062;-80
2023/04/17 00:56:33;;;;;;;19.55;11.80;;;;;;;;;;4940526;29;20490;-80
2023/04/17 00:59:01;;;;;;;21.92;12.18;;;;;;;;;;4944431;29;20027;-80
2023/04/17 01:01:27;;;;;;;20.25;11.75;;;;;;;;;;4959235;29;20041;-80
2023/04/17 01:03:53;;;;;;;21.75;11.98;;;;;;;;;;4960533;28;20030;-80
2023/04/17 01:06:19;;;;;;;25.88;13.73;;;;;;;;;;4948682;28;20063;-79
2023/04/17 01:08:45;;;;;;;31.65;14.95;;;;;;;;;;4941131;29;20032;-79
2023/04/17 01:11:11;;;;;;;34.30;13.80;;;;;;;;;;4940906;29;20028;-80
2023/04/17 01:13:46;;;;;;;24.95;13.05;;;;;;;;;;4941161;29;20418;-80
2023/04/17 01:16:12;;;;;;;25.05;13.10;;;;;;;;;;4941245;29;20039;-80
2023/04/17 01:18:38;;;;;;;22.75;11.18;;;;;;;;;;4941105;29;20027;-79
2023/04/17 01:21:04;;;;;;;18.67;10.68;;;;;;;;;;4960200;28;20073;-80
2023/04/17 01:23:40;;;;;;;15.27;10.02;;;;;;;;;;4958753;28;20133;-80
2023/04/17 01:26:06;;;;;;;15.63;10.10;;;;;;;;;;4942892;28;20079;-80
2023/04/17 01:28:32;;;;;;;14.50;9.18;;;;;;;;;;4940484;29;20039;-81
2023/04/17 01:30:58;;;;;;;15.18;8.95;;;;;;;;;;4940632;29;20355;-80
2023/04/17 01:33:24;;;;;;;11.95;8.50;;;;;;;;;;4940809;29;20046;-80
2023/04/17 01:35:50;;;;;;;10.68;8.48;;;;;;;;;;4974612;28;20039;-80
2023/04/17 01:38:16;;;;;;;12.95;7.93;;;;;;;;;;4959915;29;20023;-80
2023/04/17 01:40:42;;;;;;;13.75;8.68;;;;;;;;;;4942162;29;20035;-80
2023/04/17 01:43:09;;;;;;;11.55;9.10;;;;;;;;;;4940108;29;20087;-80
2023/04/17 01:45:35;;;;;;;15.20;9.45;;;;;;;;;;4939385;29;20030;-80
2023/04/17 01:48:01;;;;;;;11.90;8.15;;;;;;;;;;4940346;29;20106;-81
2023/04/17 01:50:27;;;;;;;12.73;7.82;;;;;;;;;;4940335;29;20486;-80
2023/04/17 01:52:53;;;;;;;8.35;7.13;;;;;;;;;;4940042;29;20062;-80
2023/04/17 01:55:19;;;;;;;9.45;7.55;;;;;;;;;;4940522;29;20027;-80
2023/04/17 01:57:45;;;;;;;11.05;7.78;;;;;;;;;;4940307;29;20314;-80
2023/04/17 02:00:11;;;;;;;13.05;8.15;;;;;;;;;;4953396;29;20047;-80
2023/04/17 02:02:37;;;;;;;15.05;7.95;;;;;;;;;;4955222;29;20090;-81
2023/04/17 02:05:03;;;;;;;8.07;6.45;;;;;;;;;;4939138;29;20046;-80
2023/04/17 02:07:29;;;;;;;8.40;7.28;;;;;;;;;;4940173;29;20035;-80
2023/04/17 02:09:55;;;;;;;11.52;7.10;;;;;;;;;;4951485;29;20027;-80
2023/04/17 02:12:22;;;;;;;9.32;6.68;;;;;;;;;;4959223;29;20035;-80
2023/04/17 02:14:48;;;;;;;13.00;8.27;;;;;;;;;;4958171;29;20027;-80
2023/04/17 02:17:14;;;;;;;12.25;7.30;;;;;;;;;;4955887;29;20020;-80
2023/04/17 02:19:41;;;;;;;10.13;7.50;;;;;;;;;;4939716;29;20457;-80
2023/04/17 02:22:07;;;;;;;13.57;8.63;;;;;;;;;;4939659;29;20049;-80
2023/04/17 02:24:33;;;;;;;11.75;7.68;;;;;;;;;;4939968;29;20036;-79
2023/04/17 02:26:59;;;;;;;15.50;8.10;;;;;;;;;;4939814;29;20371;-80
2023/04/17 02:29:25;;;;;;;10.32;7.32;;;;;;;;;;4938691;29;20090;-80
2023/04/17 02:31:51;;;;;;;10.35;7.45;;;;;;;;;;4938800;29;20042;-80
2023/04/17 02:34:17;;;;;;;12.10;8.30;;;;;;;;;;4939801;29;20322;-80
2023/04/17 02:36:43;;;;;;;12.93;9.02;;;;;;;;;;4939555;29;20347;-80
2023/04/17 02:39:09;;;;;;;20.00;10.27;;;;;;;;;;4945543;29;20419;-80
2023/04/17 02:41:35;;;;;;;13.82;10.18;;;;;;;;;;4946499;29;20316;-80
2023/04/17 02:44:01;;;;;;;11.65;8.88;;;;;;;;;;4938767;29;20079;-81
2023/04/17 02:46:27;;;;;;;12.13;8.00;;;;;;;;;;4939679;29;20038;-80
2023/04/17 02:48:53;;;;;;;12.52;8.68;;;;;;;;;;4939571;29;20144;-80
2023/04/17 02:51:20;;;;;;;15.25;8.15;;;;;;;;;;4939687;29;20038;-80
2023/04/17 02:53:47;;;;;;;15.30;8.80;;;;;;;;;;4938535;29;20434;-80
2023/04/17 02:56:14;;;;;;;14.18;9.45;;;;;;;;;;4939415;29;20035;-80
2023/04/17 02:58:43;;;;;;;11.70;9.15;;;;;;;;;;4939475;29;20055;-80
2023/04/17 03:01:09;;;;;;;13.57;8.82;;;;;;;;;;4939529;29;20052;-80
2023/04/17 03:03:40;;;;;;;10.40;8.10;;;;;;;;;;4939750;29;20027;-80
2023/04/17 03:06:07;;;;;;;12.93;8.30;;;;;;;;;;4939515;29;20055;-80
2023/04/17 03:08:34;;;;;;;16.65;9.07;;;;;;;;;;4938092;29;20426;-80
2023/04/17 03:11:00;;;;;;;14.40;9.43;;;;;;;;;;4939525;29;20386;-80
2023/04/17 03:13:27;;;;;;;14.18;8.77;;;;;;;;;;4953971;29;20036;-80
2023/04/17 03:15:53;;;;;;;13.00;8.35;;;;;;;;;;4942425;29;20087;-80
2023/04/17 03:18:19;;;;;;;13.02;7.60;;;;;;;;;;4939599;29;20031;-80
2023/04/17 03:20:45;;;;;;;12.20;7.55;;;;;;;;;;4937293;29;20047;-79
2023/04/17 03:23:11;;;;;;;10.80;7.95;;;;;;;;;;4939203;29;20075;-80
2023/04/17 03:25:37;;;;;;;10.57;7.00;;;;;;;;;;4939730;29;20118;-80
2023/04/17 03:28:03;;;;;;;9.35;7.07;;;;;;;;;;4939367;29;20028;-80
2023/04/17 03:30:29;;;;;;;8.65;6.82;;;;;;;;;;4938835;29;20042;-79
2023/04/17 03:32:55;;;;;;;9.18;7.45;;;;;;;;;;4938240;29;20039;-80
2023/04/17 03:35:21;;;;;;;10.65;7.72;;;;;;;;;;4946285;29;20072;-79
2023/04/17 03:37:47;;;;;;;12.23;7.30;;;;;;;;;;4949080;29;20032;-80
2023/04/17 03:40:13;;;;;;;11.38;7.55;;;;;;;;;;4939534;29;20043;-80
2023/04/17 03:42:40;;;;;;;9.45;7.45;;;;;;;;;;4939489;29;20023;-80
2023/04/17 03:45:06;;;;;;;13.02;7.80;;;;;;;;;;4938215;29;20038;-80
2023/04/17 03:47:32;;;;;;;219.30;56.65;;;;;;;;;;4938087;29;20430;-80
2023/04/17 03:49:58;;;;;;;55.30;18.02;;;;;;;;;;4951470;29;20028;-80
2023/04/17 03:52:24;;;;;;;17.58;9.30;;;;;;;;;;4950799;28;20415;-80
2023/04/17 03:54:50;;;;;;;11.35;7.70;;;;;;;;;;4941746;29;20111;-80
2023/04/17 03:57:16;;;;;;;10.18;7.70;;;;;;;;;;4944536;29;20036;-80
2023/04/17 03:59:42;;;;;;;10.57;7.85;;;;;;;;;;4942409;29;20031;-80
2023/04/17 04:02:08;;;;;;;8.40;6.93;;;;;;;;;;4941415;29;20024;-77
2023/04/17 04:04:34;;;;;;;14.85;9.25;;;;;;;;;;4942555;29;20062;-79
2023/04/17 04:07:00;;;;;;;13.55;8.32;;;;;;;;;;4946634;28;20133;-80
2023/04/17 04:09:27;;;;;;;13.20;8.38;;;;;;;;;;4961479;29;20031;-80
2023/04/17 04:11:53;;;;;;;13.52;8.27;;;;;;;;;;4950901;29;20027;-79
2023/04/17 04:14:19;;;;;;;13.38;8.38;;;;;;;;;;4941112;29;20032;-80
2023/04/17 04:16:45;;;;;;;13.45;9.02;;;;;;;;;;4941854;29;20091;-80
2023/04/17 04:19:11;;;;;;;16.45;9.90;;;;;;;;;;4941869;29;20043;-80
2023/04/17 04:21:37;;;;;;;26.88;12.70;;;;;;;;;;4941732;29;20075;-80
2023/04/17 04:24:03;;;;;;;16.75;9.68;;;;;;;;;;4942116;29;20040;-80
2023/04/17 04:26:30;;;;;;;15.05;9.13;;;;;;;;;;4942228;29;20023;-80
2023/04/17 04:28:56;;;;;;;23.65;10.93;;;;;;;;;;4940813;29;20032;-80
2023/04/17 04:31:22;;;;;;;42.67;16.50;;;;;;;;;;4941801;29;20027;-80
2023/04/17 04:33:53;;;;;;;55.72;17.80;;;;;;;;;;4941916;29;20474;-80
2023/04/17 04:36:20;;;;;;;40.78;16.17;;;;;;;;;;4941241;28;20024;-81
2023/04/17 04:38:49;;;;;;;15.38;9.40;;;;;;;;;;4941146;29;20402;-80
2023/04/17 04:41:16;;;;;;;11.57;8.15;;;;;;;;;;4941670;29;20103;-80
2023/04/17 04:43:42;;;;;;;13.65;9.40;;;;;;;;;;4940674;29;20433;-80
2023/04/17 04:46:11;;;;;;;12.75;8.48;;;;;;;;;;4941792;29;20036;-80
2023/04/17 04:48:38;;;;;;;11.80;8.35;;;;;;;;;;4940518;29;20376;-80
2023/04/17 04:51:04;;;;;;;10.48;8.38;;;;;;;;;;4941378;29;20028;-80
2023/04/17 04:53:30;;;;;;;10.13;8.25;;;;;;;;;;4939962;29;20071;-80
2023/04/17 04:55:56;;;;;;;11.02;8.20;;;;;;;;;;4941679;29;20108;-80
2023/04/17 04:58:22;;;;;;;12.02;8.48;;;;;;;;;;4945373;29;20031;-80
2023/04/17 05:00:48;;;;;;;10.80;8.07;;;;;;;;;;4959548;29;20015;-80
2023/04/17 05:03:15;;;;;;;10.38;7.82;;;;;;;;;;4958799;29;20030;-80
2023/04/17 05:05:42;;;;;;;14.27;8.57;;;;;;;;;;4952518;28;20043;-80
2023/04/17 05:08:08;;;;;;;16.73;8.93;;;;;;;;;;4941256;29;20020;-80
2023/04/17 05:10:34;;;;;;;10.18;8.35;;;;;;;;;;4940988;29;20028;-79
2023/04/17 05:13:00;;;;;;;11.68;9.90;;;;;;;;;;4940688;29;20027;-80
2023/04/17 05:15:26;;;;;;;16.15;9.85;;;;;;;;;;4941062;29;20031;-80
2023/04/17 05:17:52;;;;;;;17.05;9.80;;;;;;;;;;4941199;29;20303;-79
2023/04/17 05:20:20;;;;;;;12.98;8.95;;;;;;;;;;4940906;29;20513;-80
2023/04/17 05:22:46;;;;;;;12.40;9.48;;;;;;;;;;4932097;29;20052;-80
2023/04/17 05:25:12;;;;;;;14.38;9.43;;;;;;;;;;4929409;29;20126;-80
2023/04/17 05:27:38;;;;;;;12.98;9.43;;;;;;;;;;4959066;29;20024;-80
2023/04/17 05:30:04;;;;;;;18.00;11.63;;;;;;;;;;4958578;29;20060;-80
2023/04/17 05:32:30;;;;;;;23.15;13.60;;;;;;;;;;4958891;29;20349;-80
2023/04/17 05:34:56;;;;;;;22.17;11.20;;;;;;;;;;4959907;28;20030;-80
2023/04/17 05:37:23;;;;;;;10.75;8.93;;;;;;;;;;4946241;28;20415;-79
2023/04/17 05:39:49;;;;;;;14.13;9.10;;;;;;;;;;4939549;29;20431;-79
2023/04/17 05:42:15;;;;;;;18.13;10.60;;;;;;;;;;4939996;29;20032;-79
2023/04/17 05:44:41;;;;;;;25.90;13.32;;;;;;;;;;4940579;29;20359;-78
2023/04/17 05:47:07;;;;;;;17.90;11.27;;;;;;;;;;4939445;29;20027;-79
2023/04/17 05:49:33;;;;;;;14.80;10.98;;;;;;;;;;4940430;29;20028;-80
2023/04/17 05:51:59;;;;;;;15.85;10.48;;;;;;;;;;4939958;29;20034;-80
2023/04/17 05:54:27;;;;;;;22.73;12.50;;;;;;;;;;4940382;29;20051;-79
2023/04/17 05:56:53;;;;;;;24.13;13.07;;;;;;;;;;4939972;29;20411;-79
2023/04/17 05:59:19;;;;;;;12.95;9.95;;;;;;;;;;4940030;29;20075;-79
2023/04/17 06:01:45;;;;;;;14.23;11.13;;;;;;;;;;4940080;29;20371;-80
2023/04/17 06:04:12;;;;;;;13.18;9.85;;;;;;;;;;4940061;29;20034;-80
2023/04/17 06:06:38;;;;;;;20.27;12.20;;;;;;;;;;4940492;29;20035;-79
2023/04/17 06:09:05;;;;;;;18.55;11.73;;;;;;;;;;4939966;29;20068;-79
2023/04/17 06:11:32;;;;;;;19.70;12.55;;;;;;;;;;4940136;29;20082;-79
2023/04/17 06:13:58;;;;;;;15.40;11.98;;;;;;;;;;4938740;29;20032;-79
2023/04/17 06:16:24;;;;;;;17.00;10.88;;;;;;;;;;4940192;29;20166;-79
2023/04/17 06:18:50;;;;;;;23.55;15.18;;;;;;;;;;4939754;29;20419;-80
2023/04/17 06:21:16;;;;;;;40.10;18.75;;;;;;;;;;4939907;29;20039;-80
2023/04/17 06:23:42;;;;;;;29.75;15.23;;;;;;;;;;4939926;29;20054;-80
2023/04/17 06:26:09;;;;;;;58.70;26.70;;;;;;;;;;4946071;29;20304;-80
2023/04/17 06:28:35;;;;;;;49.00;25.88;;;;;;;;;;4939833;29;20027;-80
2023/04/17 06:31:01;;;;;;;47.40;25.48;;;;;;;;;;4939697;29;20063;-80
2023/04/17 06:33:27;;;;;;;61.47;29.88;;;;;;;;;;4939759;29;20071;-80
2023/04/17 06:35:54;;;;;;;44.63;21.02;;;;;;;;;;4938175;29;20035;-80
2023/04/17 06:38:20;;;;;;;49.35;23.77;;;;;;;;;;4938478;29;20048;-80
2023/04/17 06:40:46;;;;;;;30.33;17.00;;;;;;;;;;4938705;29;20031;-80
2023/04/17 06:43:12;;;;;;;38.50;17.30;;;;;;;;;;4939537;29;20070;-80
2023/04/17 06:45:41;;;;;;;41.03;18.65;;;;;;;;;;4939464;29;20058;-79
2023/04/17 06:48:07;;;;;;;30.92;16.92;;;;;;;;;;4939246;29;20355;-79
2023/04/17 06:50:33;;;;;;;23.40;15.13;;;;;;;;;;4951758;29;20066;-80
2023/04/17 06:52:59;;;;;;;18.38;13.25;;;;;;;;;;4939326;29;20035;-79
2023/04/17 06:55:26;;;;;;;21.38;12.23;;;;;;;;;;4939279;29;20024;-79
2023/04/17 06:57:53;;;;;;;15.18;10.80;;;;;;;;;;4939698;29;20040;-80
2023/04/17 07:00:19;;;;;;;22.05;13.93;;;;;;;;;;4939483;29;20020;-80
2023/04/17 07:02:45;;;;;;;26.70;14.63;;;;;;;;;;4938554;29;20039;-80
2023/04/17 07:05:12;;;;;;;34.42;19.83;;;;;;;;;;4938105;29;20122;-80
2023/04/17 07:07:38;;;;;;;25.70;16.90;;;;;;;;;;4939404;28;20484;-79
2023/04/17 07:10:05;;;;;;;20.85;12.70;;;;;;;;;;4930052;29;20119;-79
2023/04/17 07:12:32;;;;;;;16.38;11.57;;;;;;;;;;4938627;29;20430;-79
2023/04/17 07:14:58;;;;;;;17.48;12.00;;;;;;;;;;4939474;29;20466;-80
2023/04/17 07:17:25;;;;;;;15.18;10.40;;;;;;;;;;4939555;29;20031;-79
2023/04/17 07:19:52;;;;;;;11.52;9.30;;;;;;;;;;4942477;28;20433;-79
2023/04/17 07:22:18;;;;;;;18.02;11.00;;;;;;;;;;4945898;29;20066;-80
2023/04/17 07:24:44;;;;;;;19.30;11.77;;;;;;;;;;4946603;29;20110;-80
2023/04/17 07:27:10;;;;;;;13.23;9.10;;;;;;;;;;4939340;29;20032;-80
2023/04/17 07:29:37;;;;;;;10.57;8.48;;;;;;;;;;4941194;29;20044;-80
2023/04/17 07:32:03;;;;;;;10.23;9.02;;;;;;;;;;4942113;29;20055;-79
2023/04/17 07:34:33;;;;;;;15.20;10.95;;;;;;;;;;4942846;29;20322;-79
2023/04/17 07:36:59;;;;;;;12.93;9.98;;;;;;;;;;4938888;29;20024;-80
2023/04/17 07:39:29;;;;;;;10.55;9.10;;;;;;;;;;4942504;29;20043;-80
2023/04/17 07:41:55;;;;;;;11.68;8.30;;;;;;;;;;4926016;29;20036;-79
2023/04/17 07:44:21;;;;;;;12.63;8.75;;;;;;;;;;4939637;29;20050;-80
2023/04/17 07:46:47;;;;;;;13.18;9.68;;;;;;;;;;4924744;29;20144;-80
2023/04/17 07:49:13;;;;;;;10.32;7.85;;;;;;;;;;4941678;29;20238;-80
2023/04/17 07:51:40;;;;;;;13.38;8.60;;;;;;;;;;4923096;29;20063;-79
2023/04/17 07:54:06;;;;;;;10.35;7.25;;;;;;;;;;4952710;29;20055;-80
2023/04/17 07:56:33;;;;;;;8.90;6.57;;;;;;;;;;4926224;29;20122;-80
2023/04/17 07:58:59;;;;;;;13.55;9.15;;;;;;;;;;4941281;29;20483;-80
2023/04/17 08:01:26;;;;;;;9.10;7.13;;;;;;;;;;4934450;29;20028;-82
2023/04/17 08:03:54;;;;;;;7.18;6.30;;;;;;;;;;4937165;29;20032;-81
2023/04/17 08:06:20;;;;;;;12.57;7.28;;;;;;;;;;4942271;29;20024;-80
2023/04/17 08:08:46;;;;;;;12.18;7.63;;;;;;;;;;4941743;29;20054;-79
2023/04/17 08:11:15;;;;;;;13.50;6.55;;;;;;;;;;4940187;29;20380;-80
2023/04/17 08:13:41;;;;;;;9.80;7.20;;;;;;;;;;4942313;29;20034;-88
2023/04/17 08:16:08;;;;;;;9.70;6.60;;;;;;;;;;4925104;29;20118;-80
2023/04/17 08:18:36;;;;;;;12.82;8.18;;;;;;;;;;4924980;29;20085;-81
2023/04/17 08:21:03;;;;;;;15.45;9.70;;;;;;;;;;4941725;29;20087;-80
2023/04/17 08:23:29;;;;;;;12.27;7.80;;;;;;;;;;4940411;29;20039;-80
2023/04/17 08:25:55;;;;;;;9.45;7.68;;;;;;;;;;4942059;29;20338;-81
2023/04/17 08:28:21;;;;;;;8.23;6.82;;;;;;;;;;4957013;29;20414;-80
2023/04/17 08:30:47;;;;;;;10.13;7.43;;;;;;;;;;4946337;29;20035;-80
2023/04/17 08:33:15;;;;;;;9.85;7.63;;;;;;;;;;4945464;29;20130;-80
2023/04/17 08:38:46;;;;;;;13.40;7.72;;;;;;;;;;4941784;29;20445;-80
2023/04/17 08:41:13;;;;;;;10.63;7.32;;;;;;;;;;4939244;29;20464;-80
2023/04/17 08:43:39;;;;;;;9.68;7.68;;;;;;;;;;4941592;29;20028;-80
2023/04/17 08:46:06;;;;;;;12.68;8.13;;;;;;;;;;4941894;29;20028;-80
2023/04/17 08:48:32;;;;;;;11.40;8.70;;;;;;;;;;4946401;29;20150;-80
2023/04/17 08:50:58;;;;;;;14.55;9.00;;;;;;;;;;4959463;29;20066;-80
2023/04/17 08:53:24;;;;;;;10.43;8.57;;;;;;;;;;4941771;29;20049;-80
2023/04/17 08:55:50;;;;;;;11.27;8.00;;;;;;;;;;4941684;29;20509;-80
2023/04/17 08:58:16;;;;;;;10.95;7.68;;;;;;;;;;4941559;29;20028;-80
2023/04/17 09:00:44;;;;;;;12.07;8.27;;;;;;;;;;4940404;29;20079;-80
2023/04/17 09:03:11;;;;;;;11.73;8.45;;;;;;;;;;4942311;29;20035;-80
2023/04/17 09:05:40;;;;;;;11.02;8.10;;;;;;;;;;4941363;29;20318;-80
2023/04/17 09:08:08;;;;;;;11.20;8.40;;;;;;;;;;4939524;29;20035;-81
2023/04/17 09:10:40;;;;;;;12.77;8.18;;;;;;;;;;4946657;29;20038;-80
2023/04/17 09:13:07;;;;;;;;;;;;;;;;;;4942204;29;20028;-80
2023/04/17 09:15:33;;;;;;;13.13;8.57;;;;;;;;;;4941050;29;19910;-80
2023/04/17 09:17:59;;;;;;;10.88;7.90;;;;;;;;;;4960499;29;20034;-80
2023/04/17 09:20:26;;;;;;;10.95;8.55;;;;;;;;;;4959110;29;20374;-81
2023/04/17 09:22:59;;;;;;;12.88;8.30;;;;;;;;;;4959874;29;20353;-80
2023/04/17 09:25:26;;;;;;;10.25;8.23;;;;;;;;;;4960019;29;20118;-80
2023/04/17 09:27:53;;;;;;;10.75;7.63;;;;;;;;;;4960055;29;20023;-80
2023/04/17 09:30:19;;;;;;;9.60;8.00;;;;;;;;;;4960076;29;20329;-80
2023/04/17 09:32:45;;;;;;;9.60;7.95;;;;;;;;;;4958569;29;20051;-80
2023/04/17 09:35:22;;;;;;;11.00;8.00;;;;;;;;;;4935682;29;20035;-80
2023/04/17 09:37:49;;;;;;;12.82;8.85;;;;;;;;;;4959784;29;20024;-80
2023/04/17 09:40:16;;;;;;;10.73;8.30;;;;;;;;;;4959989;29;20140;-80
2023/04/17 09:42:55;;;;;;;10.40;8.27;;;;;;;;;;4959721;29;20441;-80
2023/04/17 09:45:23;;;;;;;9.13;7.80;;;;;;;;;;4958086;29;20423;-80
2023/04/17 09:47:51;;;;;;;14.43;9.02;;;;;;;;;;4957857;29;20075;-80
2023/04/17 09:50:20;;;;;;;9.93;7.72;;;;;;;;;;4958628;29;20043;-81
2023/04/17 09:52:48;;;;;;;9.38;7.95;;;;;;;;;;4946317;28;20347;-80
2023/04/17 09:55:15;;;;;;;11.55;7.55;;;;;;;;;;4940355;29;20024;-80
2023/04/17 09:57:43;;;;;;;9.77;8.23;;;;;;;;;;4941217;29;20042;-80
2023/04/17 10:00:13;;;;;;;10.30;8.38;;;;;;;;;;4954050;29;20427;-80
2023/04/17 10:02:41;;;;;;;10.32;7.82;;;;;;;;;;4945512;29;20035;-80
2023/04/17 10:05:07;;;;;;;10.27;8.63;;;;;;;;;;4955341;29;20031;-80
2023/04/17 10:07:35;;;;;;;10.45;8.48;;;;;;;;;;4943688;29;20051;-80
2023/04/17 10:10:08;;;;;;;11.65;8.65;;;;;;;;;;4940116;29;20039;-81
2023/04/17 10:12:35;;;;;;;11.27;9.40;;;;;;;;;;4949388;29;20030;-80
2023/04/17 10:15:06;;;;;;;11.00;8.52;;;;;;;;;;4955741;29;20020;-92
2023/04/17 10:17:33;;;;;;;8.77;7.80;;;;;;;;;;4940223;29;20024;-83
2023/04/17 10:20:18;;;;;;;9.90;8.05;;;;;;;;;;4940146;29;20419;-83
2023/04/17 10:22:47;;;;;;;10.45;7.20;;;;;;;;;;4939633;29;20054;-83
2023/04/17 10:25:13;;;;;;;10.23;7.00;;;;;;;;;;4940256;29;20039;-83
2023/04/17 10:27:40;;;;;;;9.90;7.68;;;;;;;;;;4939049;29;20036;-83
2023/04/17 10:30:11;;;;;;;11.50;7.40;;;;;;;;;;4940125;29;20032;-83
2023/04/17 10:32:38;;;;;;;10.00;6.00;;;;;;;;;;4940281;29;20028;-83
2023/04/17 10:35:18;;;;;;;8.63;6.10;;;;;;;;;;4939032;29;20415;-83
2023/04/17 10:37:49;;;;;;;8.30;6.25;;;;;;;;;;4939995;29;20141;-84
2023/04/17 10:40:26;;;;;;;8.30;5.15;;;;;;;;;;4939941;29;20039;-83
2023/04/17 10:43:05;;;;;;;8.43;4.97;;;;;;;;;;4940100;29;20054;-83
2023/04/17 10:45:49;;;;;;;6.95;5.13;;;;;;;;;;4939965;29;20118;-83
2023/04/17 10:48:20;;;;;;;6.55;5.22;;;;;;;;;;4938921;29;20092;-83
2023/04/17 10:50:46;;;;;;;6.20;4.40;;;;;;;;;;4939992;29;20083;-83
2023/04/17 10:53:30;;;;;;;4.93;4.40;;;;;;;;;;4940137;29;20390;-82
2023/04/17 10:55:56;;;;;;;6.63;4.70;;;;;;;;;;4938783;29;20072;-83
2023/04/17 10:58:22;;;;;;;5.20;4.57;;;;;;;;;;4939750;29;20020;-83
2023/04/17 11:00:49;;;;;;;5.10;3.83;;;;;;;;;;4940010;29;20059;-84
2023/04/17 11:03:16;;;;;;;6.38;3.75;;;;;;;;;;4939889;29;20035;-84
2023/04/17 11:05:45;;;;;;;8.88;4.25;;;;;;;;;;4943613;29;20039;-86
2023/04/17 11:08:12;;;;;;;8.52;5.72;;;;;;;;;;4942531;29;20024;-83
2023/04/17 11:10:39;;;;;;;6.35;4.82;;;;;;;;;;4943633;29;20042;-83
2023/04/17 11:13:07;;;;;;;5.07;4.20;;;;;;;;;;4943507;29;20495;-83
2023/04/17 11:15:35;;;;;;;9.55;5.38;;;;;;;;;;4943498;29;20019;-83
2023/04/17 11:18:03;;;;;;;8.55;6.13;;;;;;;;;;4942519;29;20100;-83
2023/04/17 11:20:32;;;;;;;8.18;5.40;;;;;;;;;;4942396;29;20035;-83
2023/04/17 11:23:02;;;;;;;7.15;4.95;;;;;;;;;;4943380;29;20079;-83
2023/04/17 11:25:32;;;;;;;6.90;4.93;;;;;;;;;;4942195;29;20075;-83
2023/04/17 11:27:59;;;;;;;9.57;5.40;;;;;;;;;;4941934;29;20075;-83
2023/04/17 11:30:32;;;;;;;4.88;3.97;;;;;;;;;;4965299;28;20043;-83
2023/04/17 11:33:02;;;;;;;5.45;4.47;;;;;;;;;;4943116;29;20028;-82
2023/04/17 11:35:34;;;;;;;12.20;6.72;;;;;;;;;;4942675;29;20036;-82
2023/04/17 11:38:11;;;;;;;7.75;5.32;;;;;;;;;;4942885;29;20044;-81
2023/04/17 11:40:44;;;;;;;6.35;4.22;;;;;;;;;;4943184;29;20031;-83
2023/04/17 11:43:10;;;;;;;4.88;3.70;;;;;;;;;;4973834;28;20047;-82
2023/04/17 11:45:37;;;;;;;6.68;4.18;;;;;;;;;;4942544;29;20024;-83
2023/04/17 11:48:03;;;;;;;4.60;3.90;;;;;;;;;;4941920;29;20043;-83
2023/04/17 11:50:30;;;;;;;4.40;3.67;;;;;;;;;;4941786;29;20072;-83
2023/04/17 11:52:57;;;;;;;5.50;4.13;;;;;;;;;;4943359;29;20028;-83
2023/04/17 11:55:30;;;;;;;4.03;3.40;;;;;;;;;;4942881;29;20110;-83
2023/04/17 11:57:57;;;;;;;7.40;4.53;;;;;;;;;;4942996;29;20024;-83
2023/04/17 12:00:28;;;;;;;7.32;4.65;;;;;;;;;;4941246;29;20047;-83
2023/04/17 12:02:55;;;;;;;6.88;4.32;;;;;;;;;;4942701;29;20027;-83
2023/04/17 12:05:21;;;;;;;4.72;3.25;;;;;;;;;;4942733;29;20339;-83
2023/04/17 12:07:47;;;;;;;7.90;4.35;;;;;;;;;;4942135;29;20075;-83
2023/04/17 12:10:13;;;;;;;7.38;4.72;;;;;;;;;;4941237;29;20032;-83
2023/04/17 12:12:39;;;;;;;7.60;5.20;;;;;;;;;;4940863;29;20031;-82
2023/04/17 12:15:06;;;;;;;16.13;7.10;;;;;;;;;;4942188;29;20024;-82
2023/04/17 12:17:32;;;;;;;12.23;6.13;;;;;;;;;;4942451;29;20028;-83
2023/04/17 12:20:02;;;;;;;13.65;7.03;;;;;;;;;;4941291;29;20035;-82
2023/04/17 12:22:29;;;;;;;7.82;5.38;;;;;;;;;;4940784;29;20050;-83
2023/04/17 12:24:55;;;;;;;7.22;4.63;;;;;;;;;;4942395;29;20111;-83
2023/04/17 12:27:21;;;;;;;7.50;5.30;;;;;;;;;;4942286;29;20042;-83
2023/04/17 12:29:47;;;;;;;7.13;4.32;;;;;;;;;;4942114;29;20156;-83
2023/04/17 12:32:14;;;;;;;8.63;4.90;;;;;;;;;;4942147;29;20050;-83
2023/04/17 12:34:41;;;;;;;5.72;4.50;;;;;;;;;;4941717;29;20020;-83
2023/04/17 12:37:07;;;;;;;15.75;6.63;;;;;;;;;;4941360;29;20055;-82
2023/04/17 12:39:33;;;;;;;5.28;4.22;;;;;;;;;;4941772;29;20043;-83
2023/04/17 12:42:00;;;;;;;5.28;3.95;;;;;;;;;;4941975;29;20086;-83
2023/04/17 12:44:26;;;;;;;6.13;4.53;;;;;;;;;;4941719;29;20070;-83
2023/04/17 12:46:52;;;;;;;6.25;4.57;;;;;;;;;;4941016;29;20035;-83
2023/04/17 12:49:22;;;;;;;4.50;4.10;;;;;;;;;;4941546;29;20035;-82
2023/04/17 12:51:48;;;;;;;5.90;4.25;;;;;;;;;;4954709;29;20025;-84
2023/04/17 12:54:14;;;;;;;6.55;4.30;;;;;;;;;;4960929;29;20069;-83
2023/04/17 12:56:40;;;;;;;7.38;4.30;;;;;;;;;;4954569;29;20020;-83
2023/04/17 12:59:06;;;;;;;7.60;4.90;;;;;;;;;;4948397;29;20024;-83
2023/04/17 13:01:32;;;;;;;6.70;4.43;;;;;;;;;;4940370;29;20418;-83
2023/04/17 13:03:58;;;;;;;7.55;4.65;;;;;;;;;;4941266;29;20036;-83
2023/04/17 13:06:45;;;;;;;3.88;3.20;;;;;;;;;;4940328;29;20028;-83
2023/04/17 13:09:11;;;;;;;4.97;3.22;;;;;;;;;;4941394;29;20407;-83
2023/04/17 13:11:37;;;;;;;6.65;3.42;;;;;;;;;;4941600;29;20307;-83
2023/04/17 13:14:05;;;;;;;4.65;3.42;;;;;;;;;;4941323;29;20066;-83
2023/04/17 13:16:31;;;;;;;6.45;3.83;;;;;;;;;;4935652;29;20028;-83
2023/04/17 13:18:57;;;;;;;4.68;3.63;;;;;;;;;;4951666;29;20118;-83
2023/04/17 13:21:35;;;;;;;6.97;4.75;;;;;;;;;;4941138;29;20144;-84
2023/04/17 13:24:02;;;;;;;8.02;4.15;;;;;;;;;;4941337;29;20134;-83
2023/04/17 13:26:28;;;;;;;4.78;3.53;;;;;;;;;;4940598;29;20024;-83
2023/04/17 13:28:54;;;;;;;7.30;4.93;;;;;;;;;;4971981;28;20040;-84
2023/04/17 13:31:20;;;;;;;8.80;4.90;;;;;;;;;;4940315;29;20039;-83
2023/04/17 13:33:46;;;;;;;10.82;5.85;;;;;;;;;;4940574;29;20031;-83
2023/04/17 13:36:12;;;;;;;5.30;4.30;;;;;;;;;;4940931;29;20110;-82
2023/04/17 13:38:38;;;;;;;5.95;3.65;;;;;;;;;;4941950;29;20032;-84
2023/04/17 13:41:04;;;;;;;5.78;3.90;;;;;;;;;;4940544;29;20031;-83
2023/04/17 13:43:30;;;;;;;4.78;3.83;;;;;;;;;;4942205;29;20043;-83
2023/04/17 13:45:56;;;;;;;7.60;3.72;;;;;;;;;;4940778;29;20055;-84
2023/04/17 13:48:22;;;;;;;6.15;4.10;;;;;;;;;;4941006;29;20067;-83
2023/04/17 13:50:48;;;;;;;6.32;4.18;;;;;;;;;;4943326;29;20110;-84
2023/04/17 13:53:15;;;;;;;5.25;3.70;;;;;;;;;;4947486;29;20031;-81
2023/04/17 13:55:41;;;;;;;5.95;3.28;;;;;;;;;;4952169;29;20028;-81
2023/04/17 13:58:07;;;;;;;3.72;2.70;;;;;;;;;;4949189;29;20075;-80
2023/04/17 14:00:33;;;;;;;5.18;2.75;;;;;;;;;;4954073;29;20040;-80
2023/04/17 14:02:59;;;;;;;5.35;3.05;;;;;;;;;;4962229;28;20036;-80
2023/04/17 14:05:25;;;;;;;5.38;3.78;;;;;;;;;;4924192;29;20051;-80
2023/04/17 14:07:51;;;;;;;5.07;3.72;;;;;;;;;;4924552;29;20047;-80
2023/04/17 14:10:17;;;;;;;3.97;3.10;;;;;;;;;;4940244;29;20083;-82
2023/04/17 14:12:43;;;;;;;3.97;3.10;;;;;;;;;;4941115;29;20032;-80
2023/04/17 14:15:10;;;;;;;5.53;2.78;;;;;;;;;;4952976;29;20038;-81
2023/04/17 14:17:39;;;;;;;3.65;2.80;;;;;;;;;;4959241;29;20057;-81
2023/04/17 14:20:06;;;;;;;3.83;3.15;;;;;;;;;;4959146;29;20027;-81
2023/04/17 14:22:32;;;;;;;3.42;2.92;;;;;;;;;;4958896;29;20054;-81
2023/04/17 14:24:58;;;;;;;3.83;3.40;;;;;;;;;;4946847;29;20046;-81
2023/04/17 14:27:24;;;;;;;6.45;3.90;;;;;;;;;;4940129;29;20023;-81
2023/04/17 14:29:50;;;;;;;7.25;6.45;;;;;;;;;;4939615;29;20040;-81
2023/04/17 14:32:16;;;;;;;7.20;6.32;;;;;;;;;;4939649;29;20051;-81